sensor_id;sensor_type;location;lat;lon;timestamp;pressure;altitude;pressure_sealevel;temperature;humidity
73860;BME280;62197;51.632;13.700;2023-01-24T00:00:48;102473.88;;;-0.45;100.00
73860;BME280;62197;51.632;13.700;2023-01-24T00:03:13;102483.13;;;-0.36;100.00
73860;BME280;62197;51.632;13.700;2023-01-24T00:05:39;102483.75;;;-0.33;100.00
73860;BME280;62197;51.632;13.700;2023-01-24T00:08:05;102480.53;;;-0.38;100.00
73860;BME280;62197;51.632;13.700;2023-01-24T00:10:30;102475.59;;;-0.44;100.00
73860;BME280;62197;51.632;13.700;2023-01-24T00:12:57;102481.41;;;-0.37;100.00
73860;BME280;62197;51.632;13.700;2023-01-24T00:15:22;102483.13;;;-0.36;100.00
73860;BME280;62197;51.632;13.700;2023-01-24T00:17:48;102484.34;;;-0.40;100.00
73860;BME280;62197;51.632;13.700;2023-01-24T00:20:13;102477.09;;;-0.40;100.00
73860;BME280;62197;51.632;13.700;2023-01-24T00:22:39;102487.06;;;-0.40;100.00
73860;BME280;62197;51.632;13.700;2023-01-24T00:25:05;102477.81;;;-0.38;100.00
73860;BME280;62197;51.632;13.700;2023-01-24T00:27:30;102471.66;;;-0.40;100.00
73860;BME280;62197;51.632;13.700;2023-01-24T00:29:56;102481.28;;;-0.36;100.00
73860;BME280;62197;51.632;13.700;2023-01-24T00:32:22;102480.53;;;-0.38;100.00
73860;BME280;62197;51.632;13.700;2023-01-24T00:34:47;102480.41;;;-0.36;100.00
73860;BME280;62197;51.632;13.700;2023-01-24T00:37:12;102480.81;;;-0.41;100.00
73860;BME280;62197;51.632;13.700;2023-01-24T00:39:38;102471.78;;;-0.41;100.00
73860;BME280;62197;51.632;13.700;2023-01-24T00:42:03;102474.38;;;-0.40;100.00
73860;BME280;62197;51.632;13.700;2023-01-24T00:44:28;102470.19;;;-0.44;100.00
73860;BME280;62197;51.632;13.700;2023-01-24T00:46:54;102468.69;;;-0.37;100.00
73860;BME280;62197;51.632;13.700;2023-01-24T00:49:19;102480.66;;;-0.39;100.00
73860;BME280;62197;51.632;13.700;2023-01-24T00:51:45;102469.31;;;-0.44;100.00
73860;BME280;62197;51.632;13.700;2023-01-24T00:54:10;102479.31;;;-0.34;100.00
73860;BME280;62197;51.632;13.700;2023-01-24T00:56:36;102461.06;;;-0.43;100.00
73860;BME280;62197;51.632;13.700;2023-01-24T00:59:01;102471.66;;;-0.40;100.00
73860;BME280;62197;51.632;13.700;2023-01-24T01:01:26;102475.13;;;-0.38;100.00
73860;BME280;62197;51.632;13.700;2023-01-24T01:03:56;102484.97;;;-0.37;100.00
73860;BME280;62197;51.632;13.700;2023-01-24T01:06:21;102474.84;;;-0.35;100.00
73860;BME280;62197;51.632;13.700;2023-01-24T01:08:47;102478.69;;;-0.37;100.00
73860;BME280;62197;51.632;13.700;2023-01-24T01:11:12;102470.44;;;-0.36;100.00
73860;BME280;62197;51.632;13.700;2023-01-24T01:13:37;102476.59;;;-0.34;100.00
73860;BME280;62197;51.632;13.700;2023-01-24T01:16:10;102482.03;;;-0.34;100.00
73860;BME280;62197;51.632;13.700;2023-01-24T01:18:36;102486.22;;;-0.30;100.00
73860;BME280;62197;51.632;13.700;2023-01-24T01:21:02;102482.28;;;-0.26;100.00
73860;BME280;62197;51.632;13.700;2023-01-24T01:23:28;102483.03;;;-0.24;100.00
73860;BME280;62197;51.632;13.700;2023-01-24T01:25:58;102486.97;;;-0.28;100.00
73860;BME280;62197;51.632;13.700;2023-01-24T01:28:23;102485.22;;;-0.29;100.00
73860;BME280;62197;51.632;13.700;2023-01-24T01:30:52;102495.31;;;-0.31;100.00
73860;BME280;62197;51.632;13.700;2023-01-24T01:33:17;102476.81;;;-0.37;100.00
73860;BME280;62197;51.632;13.700;2023-01-24T01:35:43;102472.41;;;-0.38;100.00
73860;BME280;62197;51.632;13.700;2023-01-24T01:38:08;102487.44;;;-0.34;100.00
73860;BME280;62197;51.632;13.700;2023-01-24T01:40:33;102483.75;;;-0.33;100.00
73860;BME280;62197;51.632;13.700;2023-01-24T01:42:59;102489.16;;;-0.33;100.00
73860;BME280;62197;51.632;13.700;2023-01-24T01:45:43;102490.91;;;-0.32;100.00
73860;BME280;62197;51.632;13.700;2023-01-24T01:48:25;102489.69;;;-0.28;100.00
73860;BME280;62197;51.632;13.700;2023-01-24T01:53:35;102475.72;;;-0.34;100.00
73860;BME280;62197;51.632;13.700;2023-01-24T01:56:10;102474.63;;;-0.32;100.00
73860;BME280;62197;51.632;13.700;2023-01-24T01:58:38;102473.16;;;-0.36;100.00
73860;BME280;62197;51.632;13.700;2023-01-24T02:01:05;102462.28;;;-0.36;100.00
73860;BME280;62197;51.632;13.700;2023-01-24T02:03:39;102471.41;;;-0.37;100.00
73860;BME280;62197;51.632;13.700;2023-01-24T02:06:13;102463.78;;;-0.32;100.00
73860;BME280;62197;51.632;13.700;2023-01-24T02:08:41;102474.84;;;-0.35;100.00
73860;BME280;62197;51.632;13.700;2023-01-24T02:11:08;102474.38;;;-0.40;100.00
73860;BME280;62197;51.632;13.700;2023-01-24T02:13:52;102478.84;;;-0.39;100.00
73860;BME280;62197;51.632;13.700;2023-01-24T02:16:38;102460.69;;;-0.49;100.00
73860;BME280;62197;51.632;13.700;2023-01-24T02:19:03;102465.97;;;-0.37;100.00
73860;BME280;62197;51.632;13.700;2023-01-24T02:21:29;102480.41;;;-0.36;100.00
73860;BME280;62197;51.632;13.700;2023-01-24T02:24:15;102486.56;;;-0.34;100.00
73860;BME280;62197;51.632;13.700;2023-01-24T02:26:43;102497.56;;;-0.36;100.00
73860;BME280;62197;51.632;13.700;2023-01-24T02:29:12;102491.38;;;-0.38;100.00
73860;BME280;62197;51.632;13.700;2023-01-24T02:31:58;102483.25;;;-0.38;100.00
73860;BME280;62197;51.632;13.700;2023-01-24T02:34:25;102478.84;;;-0.39;100.00
73860;BME280;62197;51.632;13.700;2023-01-24T02:36:52;102481.63;;;-0.40;100.00
73860;BME280;62197;51.632;13.700;2023-01-24T02:39:23;102489.91;;;-0.42;100.00
73860;BME280;62197;51.632;13.700;2023-01-24T02:41:52;102488.81;;;-0.39;100.00
73860;BME280;62197;51.632;13.700;2023-01-24T02:44:28;102479.06;;;-0.42;100.00
73860;BME280;62197;51.632;13.700;2023-01-24T02:46:54;102477.34;;;-0.43;100.00
73860;BME280;62197;51.632;13.700;2023-01-24T02:49:20;102475.38;;;-0.41;100.00
73860;BME280;62197;51.632;13.700;2023-01-24T02:51:45;102470.78;;;-0.40;100.00
73860;BME280;62197;51.632;13.700;2023-01-24T02:54:29;102478.69;;;-0.37;100.00
73860;BME280;62197;51.632;13.700;2023-01-24T02:56:54;102481.03;;;-0.44;100.00
73860;BME280;62197;51.632;13.700;2023-01-24T02:59:38;102478.19;;;-0.42;100.00
73860;BME280;62197;51.632;13.700;2023-01-24T03:02:03;102478.56;;;-0.47;100.00
73860;BME280;62197;51.632;13.700;2023-01-24T03:04:29;102473.88;;;-0.45;100.00
73860;BME280;62197;51.632;13.700;2023-01-24T03:06:54;102486.09;;;-0.39;100.00
73860;BME280;62197;51.632;13.700;2023-01-24T03:09:19;102477.34;;;-0.43;100.00
73860;BME280;62197;51.632;13.700;2023-01-24T03:11:59;102474.25;;;-0.38;100.00
73860;BME280;62197;51.632;13.700;2023-01-24T03:14:46;102477.56;;;-0.35;100.00
73860;BME280;62197;51.632;13.700;2023-01-24T03:17:31;102476.13;;;-0.39;100.00
73860;BME280;62197;51.632;13.700;2023-01-24T03:20:15;102474.72;;;-0.44;100.00
73860;BME280;62197;51.632;13.700;2023-01-24T03:22:59;102480.16;;;-0.44;100.00
73860;BME280;62197;51.632;13.700;2023-01-24T03:25:43;102470.19;;;-0.44;100.00
73860;BME280;62197;51.632;13.700;2023-01-24T03:28:26;102475.84;;;-0.47;100.00
73860;BME280;62197;51.632;13.700;2023-01-24T03:31:10;102472.28;;;-0.47;100.00
73860;BME280;62197;51.632;13.700;2023-01-24T03:33:54;102469.16;;;-0.54;100.00
73860;BME280;62197;51.632;13.700;2023-01-24T03:36:38;102475.59;;;-0.44;100.00
73860;BME280;62197;51.632;13.700;2023-01-24T03:39:04;102474.38;;;-0.51;100.00
73860;BME280;62197;51.632;13.700;2023-01-24T03:41:48;102477.22;;;-0.41;100.00
73860;BME280;62197;51.632;13.700;2023-01-24T03:44:13;102470.44;;;-0.47;100.00
73860;BME280;62197;51.632;13.700;2023-01-24T03:46:38;102469.69;;;-0.49;100.00
73860;BME280;62197;51.632;13.700;2023-01-24T03:49:05;102474.84;;;-0.46;100.00
73860;BME280;62197;51.632;13.700;2023-01-24T03:51:31;102470.44;;;-0.47;100.00
73860;BME280;62197;51.632;13.700;2023-01-24T03:54:15;102467.06;;;-0.50;100.00
73860;BME280;62197;51.632;13.700;2023-01-24T03:56:40;102477.56;;;-0.46;100.00
73860;BME280;62197;51.632;13.700;2023-01-24T03:59:05;102480.41;;;-0.47;100.00
73860;BME280;62197;51.632;13.700;2023-01-24T04:01:31;102484.75;;;-0.45;100.00
73860;BME280;62197;51.632;13.700;2023-01-24T04:03:56;102481.28;;;-0.47;100.00
73860;BME280;62197;51.632;13.700;2023-01-24T04:06:21;102485.56;;;-0.44;100.00
73860;BME280;62197;51.632;13.700;2023-01-24T04:08:47;102477.34;;;-0.43;100.00
73860;BME280;62197;51.632;13.700;2023-01-24T04:11:12;102476.09;;;-0.50;100.00
73860;BME280;62197;51.632;13.700;2023-01-24T04:13:37;102485.22;;;-0.40;100.00
73860;BME280;62197;51.632;13.700;2023-01-24T04:16:05;102475.84;;;-0.47;100.00
73860;BME280;62197;51.632;13.700;2023-01-24T04:18:31;102479.53;;;-0.48;100.00
73860;BME280;62197;51.632;13.700;2023-01-24T04:21:00;102483.59;;;-0.42;100.00
73860;BME280;62197;51.632;13.700;2023-01-24T04:23:26;102477.69;;;-0.47;100.00
73860;BME280;62197;51.632;13.700;2023-01-24T04:25:51;102480.28;;;-0.46;100.00
73860;BME280;62197;51.632;13.700;2023-01-24T04:28:23;102486.44;;;-0.44;100.00
73860;BME280;62197;51.632;13.700;2023-01-24T04:30:48;102481.03;;;-0.44;100.00
73860;BME280;62197;51.632;13.700;2023-01-24T04:33:14;102491.88;;;-0.44;100.00
73860;BME280;62197;51.632;13.700;2023-01-24T04:35:39;102490.16;;;-0.45;100.00
73860;BME280;62197;51.632;13.700;2023-01-24T04:38:05;102477.81;;;-0.49;100.00
73860;BME280;62197;51.632;13.700;2023-01-24T04:40:30;102472.16;;;-0.46;100.00
73860;BME280;62197;51.632;13.700;2023-01-24T04:42:56;102473.63;;;-0.42;100.00
73860;BME280;62197;51.632;13.700;2023-01-24T04:45:22;102475.38;;;-0.41;100.00
73860;BME280;62197;51.632;13.700;2023-01-24T04:47:47;102468.69;;;-0.48;100.00
73860;BME280;62197;51.632;13.700;2023-01-24T04:50:12;102476.81;;;-0.48;100.00
73860;BME280;62197;51.632;13.700;2023-01-24T04:52:38;102476.22;;;-0.40;100.00
73860;BME280;62197;51.632;13.700;2023-01-24T04:55:03;102482.63;;;-0.52;100.00
73860;BME280;62197;51.632;13.700;2023-01-24T04:57:30;102484.97;;;-0.48;100.00
73860;BME280;62197;51.632;13.700;2023-01-24T04:59:55;102475.13;;;-0.49;100.00
73860;BME280;62197;51.632;13.700;2023-01-24T05:02:20;102471.19;;;-0.45;100.00
73860;BME280;62197;51.632;13.700;2023-01-24T05:04:45;102481.03;;;-0.44;100.00
73860;BME280;62197;51.632;13.700;2023-01-24T05:07:11;102485.09;;;-0.38;100.00
73860;BME280;62197;51.632;13.700;2023-01-24T05:09:37;102479.31;;;-0.45;100.00
73860;BME280;62197;51.632;13.700;2023-01-24T05:12:02;102484.75;;;-0.45;100.00
73860;BME280;62197;51.632;13.700;2023-01-24T05:14:28;102484.47;;;-0.42;100.00
73860;BME280;62197;51.632;13.700;2023-01-24T05:16:53;102483.50;;;-0.41;100.00
73860;BME280;62197;51.632;13.700;2023-01-24T05:19:18;102487.81;;;-0.38;100.00
73860;BME280;62197;51.632;13.700;2023-01-24T05:21:44;102474.50;;;-0.41;100.00
73860;BME280;62197;51.632;13.700;2023-01-24T05:24:09;102487.97;;;-0.18;100.00
73860;BME280;62197;51.632;13.700;2023-01-24T05:26:34;102490.03;;;-0.32;100.00
73860;BME280;62197;51.632;13.700;2023-01-24T05:29:00;102496.34;;;-0.32;100.00
73860;BME280;62197;51.632;13.700;2023-01-24T05:31:25;102495.72;;;-0.02;100.00
73860;BME280;62197;51.632;13.700;2023-01-24T05:33:50;102492.13;;;-0.36;100.00
73860;BME280;62197;51.632;13.700;2023-01-24T05:36:18;102504.94;;;-0.38;100.00
73860;BME280;62197;51.632;13.700;2023-01-24T05:38:44;102502.72;;;-0.33;100.00
73860;BME280;62197;51.632;13.700;2023-01-24T05:41:12;102503.13;;;-0.37;100.00
73860;BME280;62197;51.632;13.700;2023-01-24T05:43:38;102508.53;;;-0.37;100.00
73860;BME280;62197;51.632;13.700;2023-01-24T05:46:06;102505.56;;;-0.45;100.00
73860;BME280;62197;51.632;13.700;2023-01-24T05:48:32;102503.94;;;-0.37;100.00
73860;BME280;62197;51.632;13.700;2023-01-24T05:51:00;102509.38;;;-0.37;100.00
73860;BME280;62197;51.632;13.700;2023-01-24T05:53:26;102510.63;;;-0.19;100.00
73860;BME280;62197;51.632;13.700;2023-01-24T05:56:00;102512.84;;;-0.35;100.00
73860;BME280;62197;51.632;13.700;2023-01-24T05:58:27;102506.56;;;-0.35;100.00
73860;BME280;62197;51.632;13.700;2023-01-24T06:00:53;102505.97;;;-0.39;100.00
73860;BME280;62197;51.632;13.700;2023-01-24T06:03:19;102505.69;;;-0.47;100.00
73860;BME280;62197;51.632;13.700;2023-01-24T06:05:47;102500.25;;;-0.47;100.00
73860;BME280;62197;51.632;13.700;2023-01-24T06:08:13;102503.47;;;-0.53;100.00
73860;BME280;62197;51.632;13.700;2023-01-24T06:10:38;102509.50;;;-0.49;100.00
73860;BME280;62197;51.632;13.700;2023-01-24T06:13:03;102514.91;;;0.39;100.00
73860;BME280;62197;51.632;13.700;2023-01-24T06:15:29;102512.38;;;1.01;100.00
73860;BME280;62197;51.632;13.700;2023-01-24T06:17:54;102504.22;;;0.05;100.00
73860;BME280;62197;51.632;13.700;2023-01-24T06:20:20;102513.44;;;0.35;100.00
73860;BME280;62197;51.632;13.700;2023-01-24T06:22:51;102509.25;;;0.20;100.00
73860;BME280;62197;51.632;13.700;2023-01-24T06:25:20;102514.00;;;-0.04;100.00
73860;BME280;62197;51.632;13.700;2023-01-24T06:27:47;102523.84;;;-0.14;100.00
73860;BME280;62197;51.632;13.700;2023-01-24T06:30:13;102524.41;;;0.45;100.00
73860;BME280;62197;51.632;13.700;2023-01-24T06:38:21;102522.38;;;0.69;100.00
73860;BME280;62197;51.632;13.700;2023-01-24T06:40:50;102521.13;;;-0.03;100.00
73860;BME280;62197;51.632;13.700;2023-01-24T06:43:17;102528.75;;;-0.19;100.00
73860;BME280;62197;51.632;13.700;2023-01-24T06:45:43;102516.53;;;-0.36;100.00
73860;BME280;62197;51.632;13.700;2023-01-24T06:48:08;102520.75;;;-0.43;100.00
73860;BME280;62197;51.632;13.700;2023-01-24T06:50:33;102505.78;;;-0.48;100.00
73860;BME280;62197;51.632;13.700;2023-01-24T06:52:59;102521.34;;;-0.39;100.00
73860;BME280;62197;51.632;13.700;2023-01-24T06:55:24;102525.78;;;-0.49;100.00
73860;BME280;62197;51.632;13.700;2023-01-24T06:57:57;102530.09;;;-0.47;100.00
73860;BME280;62197;51.632;13.700;2023-01-24T07:00:23;102530.84;;;-0.45;100.00
73860;BME280;62197;51.632;13.700;2023-01-24T07:02:56;102536.50;;;-0.48;100.00
73860;BME280;62197;51.632;13.700;2023-01-24T07:05:21;102541.91;;;-0.48;100.00
73860;BME280;62197;51.632;13.700;2023-01-24T07:07:47;102545.03;;;-0.41;100.00
73860;BME280;62197;51.632;13.700;2023-01-24T07:10:12;102538.31;;;-0.48;100.00
73860;BME280;62197;51.632;13.700;2023-01-24T07:12:38;102551.66;;;-0.45;100.00
73860;BME280;62197;51.632;13.700;2023-01-24T07:15:03;102547.97;;;-0.44;100.00
73860;BME280;62197;51.632;13.700;2023-01-24T07:17:29;102542.78;;;-0.47;100.00
73860;BME280;62197;51.632;13.700;2023-01-24T07:19:54;102543.38;;;-0.55;100.00
73860;BME280;62197;51.632;13.700;2023-01-24T07:22:20;102552.03;;;-0.50;100.00
73860;BME280;62197;51.632;13.700;2023-01-24T07:24:46;102553.03;;;-0.40;100.00
73860;BME280;62197;51.632;13.700;2023-01-24T07:27:11;102546.63;;;-0.39;100.00
73860;BME280;62197;51.632;13.700;2023-01-24T07:29:37;102548.63;;;-0.30;100.00
73860;BME280;62197;51.632;13.700;2023-01-24T07:32:02;102545.50;;;-0.25;100.00
73860;BME280;62197;51.632;13.700;2023-01-24T07:34:27;102550.06;;;-0.37;100.00
73860;BME280;62197;51.632;13.700;2023-01-24T07:36:53;102555.25;;;-0.45;100.00
73860;BME280;62197;51.632;13.700;2023-01-24T07:39:18;102551.81;;;-0.36;100.00
73860;BME280;62197;51.632;13.700;2023-01-24T07:41:43;102561.50;;;-0.44;100.00
73860;BME280;62197;51.632;13.700;2023-01-24T07:44:09;102566.84;;;-0.43;100.00
73860;BME280;62197;51.632;13.700;2023-01-24T07:46:35;102557.69;;;-0.53;100.00
73860;BME280;62197;51.632;13.700;2023-01-24T07:49:01;102572.75;;;-0.49;100.00
73860;BME280;62197;51.632;13.700;2023-01-24T07:51:26;102568.53;;;-0.53;100.00
73860;BME280;62197;51.632;13.700;2023-01-24T07:53:52;102567.66;;;-0.53;100.00
73860;BME280;62197;51.632;13.700;2023-01-24T07:56:17;102564.59;;;-0.49;100.00
73860;BME280;62197;51.632;13.700;2023-01-24T07:58:43;102568.06;;;-0.47;100.00
73860;BME280;62197;51.632;13.700;2023-01-24T08:01:08;102571.75;;;-0.48;100.00
73860;BME280;62197;51.632;13.700;2023-01-24T08:03:34;102576.19;;;-0.47;100.00
73860;BME280;62197;51.632;13.700;2023-01-24T08:05:59;102577.44;;;-0.51;100.00
73860;BME280;62197;51.632;13.700;2023-01-24T08:08:24;102579.13;;;-0.50;100.00
73860;BME280;62197;51.632;13.700;2023-01-24T08:10:50;102574.59;;;-0.49;100.00
73860;BME280;62197;51.632;13.700;2023-01-24T08:13:15;102581.84;;;-0.50;100.00
73860;BME280;62197;51.632;13.700;2023-01-24T08:15:41;102573.56;;;-0.59;100.00
73860;BME280;62197;51.632;13.700;2023-01-24T08:18:06;102587.28;;;-0.50;100.00
73860;BME280;62197;51.632;13.700;2023-01-24T08:20:31;102586.53;;;-0.52;100.00
73860;BME280;62197;51.632;13.700;2023-01-24T08:22:57;102593.31;;;-0.46;100.00
73860;BME280;62197;51.632;13.700;2023-01-24T08:25:23;102579.66;;;-0.45;100.00
73860;BME280;62197;51.632;13.700;2023-01-24T08:27:48;102588.53;;;-0.43;100.00
73860;BME280;62197;51.632;13.700;2023-01-24T08:30:14;102593.22;;;-0.45;100.00
73860;BME280;62197;51.632;13.700;2023-01-24T08:32:40;102578.91;;;-0.47;100.00
73860;BME280;62197;51.632;13.700;2023-01-24T08:35:06;102586.81;;;-0.44;100.00
73860;BME280;62197;51.632;13.700;2023-01-24T08:37:31;102590.13;;;-0.40;100.00
73860;BME280;62197;51.632;13.700;2023-01-24T08:39:57;102585.84;;;-0.43;100.00
73860;BME280;62197;51.632;13.700;2023-01-24T08:42:23;102592.47;;;-0.47;100.00
73860;BME280;62197;51.632;13.700;2023-01-24T08:44:49;102585.72;;;-0.41;100.00
73860;BME280;62197;51.632;13.700;2023-01-24T08:47:14;102583.22;;;-0.44;100.00
73860;BME280;62197;51.632;13.700;2023-01-24T08:49:39;102578.44;;;-0.41;100.00
73860;BME280;62197;51.632;13.700;2023-01-24T08:52:05;102577.69;;;-0.43;100.00
73860;BME280;62197;51.632;13.700;2023-01-24T08:54:30;102580.16;;;-0.40;100.00
73860;BME280;62197;51.632;13.700;2023-01-24T08:57:01;102578.66;;;-0.44;100.00
73860;BME280;62197;51.632;13.700;2023-01-24T08:59:26;102580.66;;;-0.35;100.00
73860;BME280;62197;51.632;13.700;2023-01-24T09:01:52;102578.94;;;-0.36;100.00
73860;BME280;62197;51.632;13.700;2023-01-24T09:04:17;102572.75;;;-0.38;100.00
73860;BME280;62197;51.632;13.700;2023-01-24T09:06:43;102579.91;;;-0.37;100.00
73860;BME280;62197;51.632;13.700;2023-01-24T09:09:08;102574.38;;;-0.35;100.00
73860;BME280;62197;51.632;13.700;2023-01-24T09:11:34;102576.47;;;-0.39;100.00
73860;BME280;62197;51.632;13.700;2023-01-24T09:13:59;102576.69;;;-0.42;100.00
73860;BME280;62197;51.632;13.700;2023-01-24T09:16:24;102566.88;;;-0.32;100.00
73860;BME280;62197;51.632;13.700;2023-01-24T09:18:52;102576.84;;;-0.32;100.00
73860;BME280;62197;51.632;13.700;2023-01-24T09:21:19;102581.16;;;-0.30;100.00
73860;BME280;62197;51.632;13.700;2023-01-24T09:23:44;102578.19;;;-0.27;100.00
73860;BME280;62197;51.632;13.700;2023-01-24T09:26:10;102579.69;;;-0.23;100.00
73860;BME280;62197;51.632;13.700;2023-01-24T09:28:35;102584.63;;;-0.28;100.00
73860;BME280;62197;51.632;13.700;2023-01-24T09:31:01;102582.03;;;-0.29;100.00
73860;BME280;62197;51.632;13.700;2023-01-24T09:33:27;102586.47;;;-0.28;100.00
73860;BME280;62197;51.632;13.700;2023-01-24T09:35:58;102586.13;;;-0.24;100.00
73860;BME280;62197;51.632;13.700;2023-01-24T09:38:24;102588.84;;;-0.13;100.00
73860;BME280;62197;51.632;13.700;2023-01-24T09:41:13;102592.78;;;-0.17;100.00
73860;BME280;62197;51.632;13.700;2023-01-24T09:49:05;102587.69;;;-0.21;100.00
73860;BME280;62197;51.632;13.700;2023-01-24T09:51:36;102599.22;;;-0.07;100.00
73860;BME280;62197;51.632;13.700;2023-01-24T09:54:05;102594.53;;;0.07;100.00
73860;BME280;62197;51.632;13.700;2023-01-24T09:56:38;102609.84;;;0.08;100.00
73860;BME280;62197;51.632;13.700;2023-01-24T09:59:21;102601.19;;;0.03;100.00
73860;BME280;62197;51.632;13.700;2023-01-24T10:01:48;102595.75;;;-0.09;100.00
73860;BME280;62197;51.632;13.700;2023-01-24T10:04:24;102595.41;;;-0.04;100.00
73860;BME280;62197;51.632;13.700;2023-01-24T10:09:58;102592.81;;;0.06;100.00
73860;BME280;62197;51.632;13.700;2023-01-24T10:12:37;102581.69;;;0.09;100.00
73860;BME280;62197;51.632;13.700;2023-01-24T10:17:51;102586.28;;;0.19;100.00
73860;BME280;62197;51.632;13.700;2023-01-24T10:20:31;102585.16;;;0.11;100.00
73860;BME280;62197;51.632;13.700;2023-01-24T10:23:09;102585.91;;;0.24;100.00
73860;BME280;62197;51.632;13.700;2023-01-24T10:25:56;102584.41;;;0.20;100.00
73860;BME280;62197;51.632;13.700;2023-01-24T10:28:27;102586.28;;;0.19;100.00
73860;BME280;62197;51.632;13.700;2023-01-24T10:31:00;102584.41;;;0.09;100.00
73860;BME280;62197;51.632;13.700;2023-01-24T10:33:32;102574.03;;;0.03;100.00
73860;BME280;62197;51.632;13.700;2023-01-24T10:36:00;102584.41;;;0.20;100.00
73860;BME280;62197;51.632;13.700;2023-01-24T10:38:28;102585.41;;;0.08;100.00
73860;BME280;62197;51.632;13.700;2023-01-24T10:40:56;102576.53;;;0.06;100.00
73860;BME280;62197;51.632;13.700;2023-01-24T10:43:26;102580.94;;;0.18;100.00
73860;BME280;62197;51.632;13.700;2023-01-24T10:48:43;102561.97;;;-0.16;100.00
73860;BME280;62197;51.632;13.700;2023-01-24T10:51:15;102582.94;;;0.16;100.00
73860;BME280;62197;51.632;13.700;2023-01-24T10:53:41;102589.72;;;0.10;100.00
73860;BME280;62197;51.632;13.700;2023-01-24T10:56:07;102579.59;;;0.12;100.00
73860;BME280;62197;51.632;13.700;2023-01-24T11:01:04;102577.03;;;0.11;100.00
73860;BME280;62197;51.632;13.700;2023-01-24T11:03:31;102570.84;;;0.09;100.00
73860;BME280;62197;51.632;13.700;2023-01-24T11:06:01;102564.44;;;0.10;100.00
73860;BME280;62197;51.632;13.700;2023-01-24T11:08:34;102563.44;;;-0.01;100.00
73860;BME280;62197;51.632;13.700;2023-01-24T11:10:59;102567.66;;;0.04;100.00
73860;BME280;62197;51.632;13.700;2023-01-24T11:13:30;102563.06;;;0.04;100.00
73860;BME280;62197;51.632;13.700;2023-01-24T11:18:55;102565.03;;;0.02;100.00
73860;BME280;62197;51.632;13.700;2023-01-24T11:21:21;102560.25;;;0.06;100.00
73860;BME280;62197;51.632;13.700;2023-01-24T11:26:32;102554.78;;;-0.06;100.00
73860;BME280;62197;51.632;13.700;2023-01-24T11:29:02;102555.03;;;0.03;100.00
73860;BME280;62197;51.632;13.700;2023-01-24T11:31:39;102555.66;;;0.06;100.00
73860;BME280;62197;51.632;13.700;2023-01-24T11:51:17;102552.09;;;0.17;100.00
73860;BME280;62197;51.632;13.700;2023-01-24T11:56:57;102548.25;;;0.08;100.00
73860;BME280;62197;51.632;13.700;2023-01-24T11:59:43;102542.94;;;0.18;100.00
73860;BME280;62197;51.632;13.700;2023-01-24T12:04:52;102551.97;;;0.07;100.00
73860;BME280;62197;51.632;13.700;2023-01-24T12:07:46;102547.16;;;0.11;100.00
73860;BME280;62197;51.632;13.700;2023-01-24T12:16:04;102549.84;;;0.22;100.00
73860;BME280;62197;51.632;13.700;2023-01-24T12:21:34;102546.78;;;0.15;100.00
73860;BME280;62197;51.632;13.700;2023-01-24T12:24:19;102543.22;;;0.15;100.00
73860;BME280;62197;51.632;13.700;2023-01-24T12:26:52;102540.22;;;0.18;100.00
73860;BME280;62197;51.632;13.700;2023-01-24T12:29:25;102541.72;;;0.11;100.00
73860;BME280;62197;51.632;13.700;2023-01-24T12:31:59;102536.28;;;0.11;100.00
73860;BME280;62197;51.632;13.700;2023-01-24T12:40:18;102530.97;;;0.20;100.00
73860;BME280;62197;51.632;13.700;2023-01-24T12:43:03;102523.72;;;0.10;100.00
73860;BME280;62197;51.632;13.700;2023-01-24T12:45:45;102527.53;;;0.18;100.00
73860;BME280;62197;51.632;13.700;2023-01-24T12:48:17;102534.31;;;0.24;100.00
73860;BME280;62197;51.632;13.700;2023-01-24T12:50:53;102520.72;;;0.24;100.00
73860;BME280;62197;51.632;13.700;2023-01-24T12:53:24;102526.91;;;0.26;100.00
73860;BME280;62197;51.632;13.700;2023-01-24T12:55:57;102521.97;;;0.20;100.00
73860;BME280;62197;51.632;13.700;2023-01-24T12:58:29;102524.94;;;0.17;100.00
73860;BME280;62197;51.632;13.700;2023-01-24T13:03:49;102513.09;;;0.18;100.00
73860;BME280;62197;51.632;13.700;2023-01-24T13:06:28;102524.44;;;0.23;100.00
73860;BME280;62197;51.632;13.700;2023-01-24T13:09:23;102515.78;;;0.18;100.00
73860;BME280;62197;51.632;13.700;2023-01-24T13:11:54;102525.81;;;0.17;100.00
73860;BME280;62197;51.632;13.700;2023-01-24T13:14:31;102518.41;;;0.19;100.00
73860;BME280;62197;51.632;13.700;2023-01-24T13:17:27;102518.00;;;0.24;100.00
73860;BME280;62197;51.632;13.700;2023-01-24T13:25:49;102519.75;;;0.14;100.00
73860;BME280;62197;51.632;13.700;2023-01-24T13:28:22;102521.97;;;0.09;100.00
73860;BME280;62197;51.632;13.700;2023-01-24T13:33:37;102515.59;;;0.10;100.00
73860;BME280;62197;51.632;13.700;2023-01-24T13:36:05;102519.75;;;0.14;100.00
73860;BME280;62197;51.632;13.700;2023-01-24T13:38:39;102516.31;;;0.12;100.00
73860;BME280;62197;51.632;13.700;2023-01-24T13:41:13;102514.09;;;0.06;100.00
73860;BME280;62197;51.632;13.700;2023-01-24T13:49:20;102521.13;;;0.08;100.00
73860;BME280;62197;51.632;13.700;2023-01-24T13:51:58;102538.78;;;0.25;100.00
73860;BME280;62197;51.632;13.700;2023-01-24T13:54:41;102535.31;;;0.23;100.00
73860;BME280;62197;51.632;13.700;2023-01-24T13:57:22;102541.84;;;0.20;100.00
73860;BME280;62197;51.632;13.700;2023-01-24T14:07:58;102536.44;;;0.09;100.00
73860;BME280;62197;51.632;13.700;2023-01-24T14:10:38;102529.91;;;0.12;100.00
73860;BME280;62197;51.632;13.700;2023-01-24T14:13:05;102532.34;;;0.15;100.00
73860;BME280;62197;51.632;13.700;2023-01-24T14:15:38;102517.78;;;0.16;100.00